Webcam Flughafen St.Gallen-Altenrhein

Live-Bilder und Zeitraffer LSZR / ACH.

 

Live aus Altenrhein
LIVE
LSZR 290620Z 25008KT 210V280 9999 BKN050 04/M01 Q1012 NOSIG RMK B
Zeitraffer heute
2020-01-29 00:14:00
LSZR 282250Z AUTO 26004KT 200V320 9999 FEW060 SCT070 04/00 Q1007